sensor_id;sensor_type;location;lat;lon;timestamp;P1;durP1;ratioP1;P2;durP2;ratioP2
4486;SDS011;2256;48.740;9.106;2024-03-06T00:02:24;1.83;;;1.27;;
4486;SDS011;2256;48.740;9.106;2024-03-06T00:04:51;0.80;;;0.80;;
4486;SDS011;2256;48.740;9.106;2024-03-06T00:07:21;0.98;;;0.98;;
4486;SDS011;2256;48.740;9.106;2024-03-06T00:09:48;0.70;;;0.70;;
4486;SDS011;2256;48.740;9.106;2024-03-06T00:12:14;0.80;;;0.80;;
4486;SDS011;2256;48.740;9.106;2024-03-06T00:14:41;0.98;;;0.98;;
4486;SDS011;2256;48.740;9.106;2024-03-06T00:17:08;1.67;;;1.00;;
4486;SDS011;2256;48.740;9.106;2024-03-06T00:19:35;0.80;;;0.80;;
4486;SDS011;2256;48.740;9.106;2024-03-06T00:22:02;2.85;;;1.27;;
4486;SDS011;2256;48.740;9.106;2024-03-06T00:24:30;1.97;;;0.83;;
4486;SDS011;2256;48.740;9.106;2024-03-06T00:26:57;4.03;;;1.00;;
4486;SDS011;2256;48.740;9.106;2024-03-06T00:29:24;2.55;;;1.17;;
4486;SDS011;2256;48.740;9.106;2024-03-06T00:31:51;0.93;;;0.93;;
4486;SDS011;2256;48.740;9.106;2024-03-06T00:34:18;0.93;;;0.93;;
4486;SDS011;2256;48.740;9.106;2024-03-06T00:36:45;2.17;;;1.38;;
4486;SDS011;2256;48.740;9.106;2024-03-06T00:39:12;1.67;;;1.20;;
4486;SDS011;2256;48.740;9.106;2024-03-06T00:41:41;1.15;;;1.05;;
4486;SDS011;2256;48.740;9.106;2024-03-06T00:44:08;0.90;;;0.90;;
4486;SDS011;2256;48.740;9.106;2024-03-06T00:46:34;0.80;;;0.80;;
4486;SDS011;2256;48.740;9.106;2024-03-06T00:49:02;0.80;;;0.80;;
4486;SDS011;2256;48.740;9.106;2024-03-06T00:51:29;0.85;;;0.85;;
4486;SDS011;2256;48.740;9.106;2024-03-06T00:53:56;0.95;;;0.93;;
4486;SDS011;2256;48.740;9.106;2024-03-06T00:56:23;1.45;;;1.20;;
4486;SDS011;2256;48.740;9.106;2024-03-06T00:58:51;1.00;;;0.87;;
4486;SDS011;2256;48.740;9.106;2024-03-06T01:01:18;0.85;;;0.85;;
4486;SDS011;2256;48.740;9.106;2024-03-06T01:03:45;0.90;;;0.90;;
4486;SDS011;2256;48.740;9.106;2024-03-06T01:06:12;0.80;;;0.80;;
4486;SDS011;2256;48.740;9.106;2024-03-06T01:08:39;3.00;;;1.10;;
4486;SDS011;2256;48.740;9.106;2024-03-06T01:11:06;0.90;;;0.90;;
4486;SDS011;2256;48.740;9.106;2024-03-06T01:13:33;2.08;;;0.88;;
4486;SDS011;2256;48.740;9.106;2024-03-06T01:16:02;0.93;;;0.93;;
4486;SDS011;2256;48.740;9.106;2024-03-06T01:18:29;1.10;;;1.10;;
4486;SDS011;2256;48.740;9.106;2024-03-06T01:20:56;1.30;;;1.20;;
4486;SDS011;2256;48.740;9.106;2024-03-06T01:23:22;1.50;;;1.40;;
4486;SDS011;2256;48.740;9.106;2024-03-06T01:25:49;0.80;;;0.80;;
4486;SDS011;2256;48.740;9.106;2024-03-06T01:28:16;1.65;;;1.55;;
4486;SDS011;2256;48.740;9.106;2024-03-06T01:30:43;1.48;;;1.33;;
4486;SDS011;2256;48.740;9.106;2024-03-06T01:33:11;1.60;;;1.30;;
4486;SDS011;2256;48.740;9.106;2024-03-06T01:35:38;0.80;;;0.80;;
4486;SDS011;2256;48.740;9.106;2024-03-06T01:38:05;1.50;;;1.17;;
4486;SDS011;2256;48.740;9.106;2024-03-06T01:40:32;1.10;;;1.00;;
4486;SDS011;2256;48.740;9.106;2024-03-06T01:42:59;0.95;;;0.95;;
4486;SDS011;2256;48.740;9.106;2024-03-06T01:45:26;1.13;;;0.95;;
4486;SDS011;2256;48.740;9.106;2024-03-06T01:47:53;1.00;;;0.90;;
4486;SDS011;2256;48.740;9.106;2024-03-06T01:50:21;0.88;;;0.80;;
4486;SDS011;2256;48.740;9.106;2024-03-06T01:52:49;0.90;;;0.90;;
4486;SDS011;2256;48.740;9.106;2024-03-06T01:55:17;1.33;;;1.17;;
4486;SDS011;2256;48.740;9.106;2024-03-06T01:57:44;3.90;;;1.17;;
4486;SDS011;2256;48.740;9.106;2024-03-06T02:00:11;1.10;;;0.90;;
4486;SDS011;2256;48.740;9.106;2024-03-06T02:02:41;0.80;;;0.80;;
4486;SDS011;2256;48.740;9.106;2024-03-06T02:05:08;1.50;;;0.80;;
4486;SDS011;2256;48.740;9.106;2024-03-06T02:07:37;4.93;;;1.40;;
4486;SDS011;2256;48.740;9.106;2024-03-06T02:10:06;1.25;;;1.15;;
4486;SDS011;2256;48.740;9.106;2024-03-06T02:12:35;1.52;;;1.42;;
4486;SDS011;2256;48.740;9.106;2024-03-06T02:15:03;0.90;;;0.90;;
4486;SDS011;2256;48.740;9.106;2024-03-06T02:17:31;0.80;;;0.80;;
4486;SDS011;2256;48.740;9.106;2024-03-06T02:19:59;2.67;;;1.40;;
4486;SDS011;2256;48.740;9.106;2024-03-06T02:22:27;2.85;;;1.35;;
4486;SDS011;2256;48.740;9.106;2024-03-06T02:24:54;0.80;;;0.80;;
4486;SDS011;2256;48.740;9.106;2024-03-06T02:27:21;0.73;;;0.73;;
4486;SDS011;2256;48.740;9.106;2024-03-06T02:29:47;1.42;;;1.33;;
4486;SDS011;2256;48.740;9.106;2024-03-06T02:32:14;0.70;;;0.70;;
4486;SDS011;2256;48.740;9.106;2024-03-06T02:34:44;0.80;;;0.80;;
4486;SDS011;2256;48.740;9.106;2024-03-06T02:37:11;0.85;;;0.85;;
4486;SDS011;2256;48.740;9.106;2024-03-06T02:39:39;2.55;;;1.42;;
4486;SDS011;2256;48.740;9.106;2024-03-06T02:42:06;0.90;;;0.90;;
4486;SDS011;2256;48.740;9.106;2024-03-06T02:44:33;0.88;;;0.88;;
4486;SDS011;2256;48.740;9.106;2024-03-06T02:47:00;2.25;;;1.55;;
4486;SDS011;2256;48.740;9.106;2024-03-06T02:49:26;1.45;;;1.13;;
4486;SDS011;2256;48.740;9.106;2024-03-06T02:51:53;2.08;;;1.33;;
4486;SDS011;2256;48.740;9.106;2024-03-06T02:54:20;1.10;;;0.90;;
4486;SDS011;2256;48.740;9.106;2024-03-06T02:56:48;1.20;;;1.10;;
4486;SDS011;2256;48.740;9.106;2024-03-06T02:59:17;2.97;;;1.20;;
4486;SDS011;2256;48.740;9.106;2024-03-06T03:01:44;1.65;;;1.55;;
4486;SDS011;2256;48.740;9.106;2024-03-06T03:04:11;1.10;;;1.08;;
4486;SDS011;2256;48.740;9.106;2024-03-06T03:06:39;1.10;;;1.10;;
4486;SDS011;2256;48.740;9.106;2024-03-06T03:09:08;2.10;;;1.10;;
4486;SDS011;2256;48.740;9.106;2024-03-06T03:11:36;1.50;;;0.95;;
4486;SDS011;2256;48.740;9.106;2024-03-06T03:14:05;1.33;;;1.23;;
4486;SDS011;2256;48.740;9.106;2024-03-06T03:16:31;1.25;;;1.15;;
4486;SDS011;2256;48.740;9.106;2024-03-06T03:18:58;1.08;;;1.08;;
4486;SDS011;2256;48.740;9.106;2024-03-06T03:21:25;1.00;;;1.00;;
4486;SDS011;2256;48.740;9.106;2024-03-06T03:23:52;1.10;;;1.00;;
4486;SDS011;2256;48.740;9.106;2024-03-06T03:26:19;1.17;;;1.08;;
4486;SDS011;2256;48.740;9.106;2024-03-06T03:28:45;1.35;;;0.95;;
4486;SDS011;2256;48.740;9.106;2024-03-06T03:31:13;0.82;;;0.82;;
4486;SDS011;2256;48.740;9.106;2024-03-06T03:33:40;7.57;;;0.90;;
4486;SDS011;2256;48.740;9.106;2024-03-06T03:36:08;0.73;;;0.73;;
4486;SDS011;2256;48.740;9.106;2024-03-06T03:38:35;0.90;;;0.90;;
4486;SDS011;2256;48.740;9.106;2024-03-06T03:41:06;1.00;;;0.80;;
4486;SDS011;2256;48.740;9.106;2024-03-06T03:43:33;1.25;;;0.93;;
4486;SDS011;2256;48.740;9.106;2024-03-06T03:46:00;1.00;;;1.00;;
4486;SDS011;2256;48.740;9.106;2024-03-06T03:48:28;0.80;;;0.80;;
4486;SDS011;2256;48.740;9.106;2024-03-06T03:50:55;2.35;;;1.30;;
4486;SDS011;2256;48.740;9.106;2024-03-06T03:53:22;0.93;;;0.93;;
4486;SDS011;2256;48.740;9.106;2024-03-06T03:55:48;1.05;;;1.05;;
4486;SDS011;2256;48.740;9.106;2024-03-06T03:58:15;1.00;;;1.00;;
4486;SDS011;2256;48.740;9.106;2024-03-06T04:00:42;1.25;;;1.15;;
4486;SDS011;2256;48.740;9.106;2024-03-06T04:03:09;1.42;;;1.33;;
4486;SDS011;2256;48.740;9.106;2024-03-06T04:05:37;1.52;;;1.42;;
4486;SDS011;2256;48.740;9.106;2024-03-06T04:08:04;0.90;;;0.88;;
4486;SDS011;2256;48.740;9.106;2024-03-06T04:10:31;0.80;;;0.80;;
4486;SDS011;2256;48.740;9.106;2024-03-06T04:12:58;0.70;;;0.70;;
4486;SDS011;2256;48.740;9.106;2024-03-06T04:15:25;1.15;;;1.00;;
4486;SDS011;2256;48.740;9.106;2024-03-06T04:17:52;1.40;;;1.30;;
4486;SDS011;2256;48.740;9.106;2024-03-06T04:20:19;1.10;;;1.05;;
4486;SDS011;2256;48.740;9.106;2024-03-06T04:22:47;0.70;;;0.70;;
4486;SDS011;2256;48.740;9.106;2024-03-06T04:25:16;1.20;;;1.00;;
4486;SDS011;2256;48.740;9.106;2024-03-06T04:27:44;1.85;;;0.98;;
4486;SDS011;2256;48.740;9.106;2024-03-06T04:30:11;0.80;;;0.80;;
4486;SDS011;2256;48.740;9.106;2024-03-06T04:32:39;0.80;;;0.80;;
4486;SDS011;2256;48.740;9.106;2024-03-06T04:35:06;1.20;;;1.17;;
4486;SDS011;2256;48.740;9.106;2024-03-06T04:37:34;2.45;;;1.17;;
4486;SDS011;2256;48.740;9.106;2024-03-06T04:40:03;0.93;;;0.93;;
4486;SDS011;2256;48.740;9.106;2024-03-06T04:42:33;1.50;;;0.98;;
4486;SDS011;2256;48.740;9.106;2024-03-06T04:45:03;0.80;;;0.80;;
4486;SDS011;2256;48.740;9.106;2024-03-06T04:47:30;2.67;;;1.48;;
4486;SDS011;2256;48.740;9.106;2024-03-06T04:49:57;3.25;;;1.20;;
4486;SDS011;2256;48.740;9.106;2024-03-06T04:52:24;0.93;;;0.93;;
4486;SDS011;2256;48.740;9.106;2024-03-06T04:54:50;1.15;;;0.90;;
4486;SDS011;2256;48.740;9.106;2024-03-06T04:57:18;1.30;;;1.20;;
4486;SDS011;2256;48.740;9.106;2024-03-06T04:59:45;2.55;;;1.23;;
4486;SDS011;2256;48.740;9.106;2024-03-06T05:02:12;0.90;;;0.85;;
4486;SDS011;2256;48.740;9.106;2024-03-06T05:04:39;3.15;;;1.00;;
4486;SDS011;2256;48.740;9.106;2024-03-06T05:07:06;1.30;;;1.20;;
4486;SDS011;2256;48.740;9.106;2024-03-06T05:09:32;1.10;;;0.95;;
4486;SDS011;2256;48.740;9.106;2024-03-06T05:12:00;1.30;;;1.20;;
4486;SDS011;2256;48.740;9.106;2024-03-06T05:14:28;0.90;;;0.90;;
4486;SDS011;2256;48.740;9.106;2024-03-06T05:16:55;2.75;;;1.90;;
4486;SDS011;2256;48.740;9.106;2024-03-06T05:19:21;1.48;;;1.20;;
4486;SDS011;2256;48.740;9.106;2024-03-06T05:21:48;0.90;;;0.90;;
4486;SDS011;2256;48.740;9.106;2024-03-06T05:24:15;1.73;;;1.00;;
4486;SDS011;2256;48.740;9.106;2024-03-06T05:26:42;1.25;;;1.15;;
4486;SDS011;2256;48.740;9.106;2024-03-06T05:29:08;1.60;;;1.10;;
4486;SDS011;2256;48.740;9.106;2024-03-06T05:31:36;2.08;;;1.45;;
4486;SDS011;2256;48.740;9.106;2024-03-06T05:34:03;1.20;;;1.10;;
4486;SDS011;2256;48.740;9.106;2024-03-06T05:36:31;1.95;;;1.73;;
4486;SDS011;2256;48.740;9.106;2024-03-06T05:38:58;1.88;;;1.50;;
4486;SDS011;2256;48.740;9.106;2024-03-06T05:41:24;0.98;;;0.98;;
4486;SDS011;2256;48.740;9.106;2024-03-06T05:43:51;1.30;;;1.20;;
4486;SDS011;2256;48.740;9.106;2024-03-06T05:46:18;2.50;;;1.55;;
4486;SDS011;2256;48.740;9.106;2024-03-06T05:48:47;2.03;;;1.30;;
4486;SDS011;2256;48.740;9.106;2024-03-06T05:51:15;1.15;;;1.15;;
4486;SDS011;2256;48.740;9.106;2024-03-06T05:53:41;1.63;;;1.45;;
4486;SDS011;2256;48.740;9.106;2024-03-06T05:56:09;1.35;;;1.20;;
4486;SDS011;2256;48.740;9.106;2024-03-06T05:58:36;1.15;;;0.90;;
4486;SDS011;2256;48.740;9.106;2024-03-06T06:01:03;1.90;;;1.80;;
4486;SDS011;2256;48.740;9.106;2024-03-06T06:03:30;1.20;;;1.13;;
4486;SDS011;2256;48.740;9.106;2024-03-06T06:05:58;2.42;;;1.65;;
4486;SDS011;2256;48.740;9.106;2024-03-06T06:08:25;1.77;;;1.23;;
4486;SDS011;2256;48.740;9.106;2024-03-06T06:10:52;3.33;;;1.38;;
4486;SDS011;2256;48.740;9.106;2024-03-06T06:13:19;1.98;;;1.52;;
4486;SDS011;2256;48.740;9.106;2024-03-06T06:15:46;1.40;;;1.30;;
4486;SDS011;2256;48.740;9.106;2024-03-06T06:18:13;1.98;;;1.48;;
4486;SDS011;2256;48.740;9.106;2024-03-06T06:20:40;1.65;;;1.10;;
4486;SDS011;2256;48.740;9.106;2024-03-06T06:23:08;1.30;;;1.20;;
4486;SDS011;2256;48.740;9.106;2024-03-06T06:25:35;3.90;;;1.50;;
4486;SDS011;2256;48.740;9.106;2024-03-06T06:28:02;3.85;;;1.52;;
4486;SDS011;2256;48.740;9.106;2024-03-06T06:30:29;4.53;;;1.70;;
4486;SDS011;2256;48.740;9.106;2024-03-06T06:32:57;1.70;;;0.98;;
4486;SDS011;2256;48.740;9.106;2024-03-06T06:35:24;1.60;;;1.50;;
4486;SDS011;2256;48.740;9.106;2024-03-06T06:37:52;1.75;;;1.50;;
4486;SDS011;2256;48.740;9.106;2024-03-06T06:40:20;1.65;;;1.27;;
4486;SDS011;2256;48.740;9.106;2024-03-06T06:42:48;3.15;;;1.38;;
4486;SDS011;2256;48.740;9.106;2024-03-06T06:45:15;1.35;;;1.25;;
4486;SDS011;2256;48.740;9.106;2024-03-06T06:47:43;1.67;;;1.58;;
4486;SDS011;2256;48.740;9.106;2024-03-06T06:50:10;2.35;;;1.70;;
4486;SDS011;2256;48.740;9.106;2024-03-06T06:52:37;1.40;;;1.30;;
4486;SDS011;2256;48.740;9.106;2024-03-06T06:55:04;2.22;;;1.55;;
4486;SDS011;2256;48.740;9.106;2024-03-06T06:57:33;2.88;;;1.90;;
4486;SDS011;2256;48.740;9.106;2024-03-06T07:00:00;3.35;;;1.30;;
4486;SDS011;2256;48.740;9.106;2024-03-06T07:02:34;0.98;;;0.90;;
4486;SDS011;2256;48.740;9.106;2024-03-06T07:05:00;2.28;;;1.00;;
4486;SDS011;2256;48.740;9.106;2024-03-06T07:07:29;1.58;;;1.38;;
4486;SDS011;2256;48.740;9.106;2024-03-06T07:09:56;1.30;;;1.20;;
4486;SDS011;2256;48.740;9.106;2024-03-06T07:12:23;2.72;;;1.17;;
4486;SDS011;2256;48.740;9.106;2024-03-06T07:14:51;1.20;;;1.10;;
4486;SDS011;2256;48.740;9.106;2024-03-06T07:17:18;1.50;;;1.38;;
4486;SDS011;2256;48.740;9.106;2024-03-06T07:19:45;1.60;;;1.25;;
4486;SDS011;2256;48.740;9.106;2024-03-06T07:22:12;2.00;;;1.80;;
4486;SDS011;2256;48.740;9.106;2024-03-06T07:24:39;1.20;;;1.10;;
4486;SDS011;2256;48.740;9.106;2024-03-06T07:27:06;1.58;;;1.27;;
4486;SDS011;2256;48.740;9.106;2024-03-06T07:29:34;1.42;;;1.33;;
4486;SDS011;2256;48.740;9.106;2024-03-06T07:32:02;1.48;;;1.38;;
4486;SDS011;2256;48.740;9.106;2024-03-06T07:34:30;1.85;;;1.52;;
4486;SDS011;2256;48.740;9.106;2024-03-06T07:36:57;5.18;;;2.55;;
4486;SDS011;2256;48.740;9.106;2024-03-06T07:39:27;1.00;;;0.90;;
4486;SDS011;2256;48.740;9.106;2024-03-06T07:41:53;3.05;;;1.70;;
4486;SDS011;2256;48.740;9.106;2024-03-06T07:44:20;6.63;;;1.25;;
4486;SDS011;2256;48.740;9.106;2024-03-06T07:46:47;10.23;;;1.60;;
4486;SDS011;2256;48.740;9.106;2024-03-06T07:49:16;2.00;;;1.15;;
4486;SDS011;2256;48.740;9.106;2024-03-06T07:51:42;1.63;;;1.52;;
4486;SDS011;2256;48.740;9.106;2024-03-06T07:54:09;1.13;;;1.02;;
4486;SDS011;2256;48.740;9.106;2024-03-06T07:56:36;1.35;;;1.25;;
4486;SDS011;2256;48.740;9.106;2024-03-06T07:59:03;1.48;;;1.05;;
4486;SDS011;2256;48.740;9.106;2024-03-06T08:01:31;1.20;;;1.10;;
4486;SDS011;2256;48.740;9.106;2024-03-06T08:03:58;1.85;;;1.05;;
4486;SDS011;2256;48.740;9.106;2024-03-06T08:06:26;3.65;;;1.50;;
4486;SDS011;2256;48.740;9.106;2024-03-06T08:08:54;1.30;;;1.20;;
4486;SDS011;2256;48.740;9.106;2024-03-06T08:11:21;1.67;;;1.55;;
4486;SDS011;2256;48.740;9.106;2024-03-06T08:13:50;2.83;;;1.55;;
4486;SDS011;2256;48.740;9.106;2024-03-06T08:16:22;3.65;;;1.80;;
4486;SDS011;2256;48.740;9.106;2024-03-06T08:18:49;1.95;;;1.85;;
4486;SDS011;2256;48.740;9.106;2024-03-06T08:21:15;1.43;;;1.30;;
4486;SDS011;2256;48.740;9.106;2024-03-06T08:23:43;20.10;;;1.30;;
4486;SDS011;2256;48.740;9.106;2024-03-06T08:26:12;1.05;;;1.05;;
4486;SDS011;2256;48.740;9.106;2024-03-06T08:28:39;2.20;;;2.00;;
4486;SDS011;2256;48.740;9.106;2024-03-06T08:31:06;1.75;;;1.30;;
4486;SDS011;2256;48.740;9.106;2024-03-06T08:33:33;2.47;;;1.70;;
4486;SDS011;2256;48.740;9.106;2024-03-06T08:36:00;1.30;;;1.20;;
4486;SDS011;2256;48.740;9.106;2024-03-06T08:38:27;1.58;;;1.17;;
4486;SDS011;2256;48.740;9.106;2024-03-06T08:40:55;1.00;;;1.00;;
4486;SDS011;2256;48.740;9.106;2024-03-06T08:43:22;1.42;;;1.33;;
4486;SDS011;2256;48.740;9.106;2024-03-06T08:45:49;2.17;;;1.65;;
4486;SDS011;2256;48.740;9.106;2024-03-06T08:48:15;0.90;;;0.90;;
4486;SDS011;2256;48.740;9.106;2024-03-06T08:50:43;2.08;;;1.13;;
4486;SDS011;2256;48.740;9.106;2024-03-06T08:53:10;1.77;;;1.38;;
4486;SDS011;2256;48.740;9.106;2024-03-06T08:55:39;1.85;;;1.27;;
4486;SDS011;2256;48.740;9.106;2024-03-06T08:58:07;1.10;;;1.10;;
4486;SDS011;2256;48.740;9.106;2024-03-06T09:00:34;1.35;;;1.30;;
4486;SDS011;2256;48.740;9.106;2024-03-06T09:03:02;5.45;;;1.80;;
4486;SDS011;2256;48.740;9.106;2024-03-06T09:05:30;3.42;;;1.52;;
4486;SDS011;2256;48.740;9.106;2024-03-06T09:07:57;1.58;;;1.48;;
4486;SDS011;2256;48.740;9.106;2024-03-06T09:10:23;1.30;;;1.20;;
4486;SDS011;2256;48.740;9.106;2024-03-06T09:12:50;2.58;;;1.40;;
4486;SDS011;2256;48.740;9.106;2024-03-06T09:15:18;2.03;;;1.90;;
4486;SDS011;2256;48.740;9.106;2024-03-06T09:17:46;4.00;;;1.60;;
4486;SDS011;2256;48.740;9.106;2024-03-06T09:20:13;1.45;;;1.35;;
4486;SDS011;2256;48.740;9.106;2024-03-06T09:22:41;2.20;;;2.00;;
4486;SDS011;2256;48.740;9.106;2024-03-06T09:25:08;1.60;;;1.50;;
4486;SDS011;2256;48.740;9.106;2024-03-06T09:27:35;1.00;;;1.00;;
4486;SDS011;2256;48.740;9.106;2024-03-06T09:30:02;1.58;;;1.48;;
4486;SDS011;2256;48.740;9.106;2024-03-06T09:32:31;0.82;;;0.82;;
4486;SDS011;2256;48.740;9.106;2024-03-06T09:34:57;2.40;;;1.70;;
4486;SDS011;2256;48.740;9.106;2024-03-06T09:37:25;6.23;;;2.27;;
4486;SDS011;2256;48.740;9.106;2024-03-06T09:39:52;3.50;;;1.30;;
4486;SDS011;2256;48.740;9.106;2024-03-06T09:42:19;1.60;;;1.50;;
4486;SDS011;2256;48.740;9.106;2024-03-06T09:44:46;1.80;;;1.35;;
4486;SDS011;2256;48.740;9.106;2024-03-06T09:47:13;1.50;;;1.40;;
4486;SDS011;2256;48.740;9.106;2024-03-06T09:49:41;1.47;;;1.37;;
4486;SDS011;2256;48.740;9.106;2024-03-06T09:52:08;3.20;;;1.57;;
4486;SDS011;2256;48.740;9.106;2024-03-06T09:54:37;4.10;;;1.33;;
4486;SDS011;2256;48.740;9.106;2024-03-06T09:57:04;2.20;;;1.20;;
4486;SDS011;2256;48.740;9.106;2024-03-06T09:59:31;1.30;;;1.30;;
4486;SDS011;2256;48.740;9.106;2024-03-06T10:02:00;1.93;;;1.37;;
4486;SDS011;2256;48.740;9.106;2024-03-06T10:04:28;3.10;;;2.25;;
4486;SDS011;2256;48.740;9.106;2024-03-06T10:07:00;1.67;;;1.30;;
4486;SDS011;2256;48.740;9.106;2024-03-06T10:09:27;1.65;;;1.55;;
4486;SDS011;2256;48.740;9.106;2024-03-06T10:11:56;2.53;;;2.03;;
4486;SDS011;2256;48.740;9.106;2024-03-06T10:14:23;6.78;;;2.40;;
4486;SDS011;2256;48.740;9.106;2024-03-06T10:16:53;1.77;;;1.60;;
4486;SDS011;2256;48.740;9.106;2024-03-06T10:19:21;1.83;;;1.73;;
4486;SDS011;2256;48.740;9.106;2024-03-06T10:21:49;2.00;;;1.80;;
4486;SDS011;2256;48.740;9.106;2024-03-06T10:24:19;1.30;;;1.23;;
4486;SDS011;2256;48.740;9.106;2024-03-06T10:26:46;2.10;;;1.93;;
4486;SDS011;2256;48.740;9.106;2024-03-06T10:29:14;2.92;;;2.70;;
4486;SDS011;2256;48.740;9.106;2024-03-06T10:31:46;1.77;;;1.43;;
4486;SDS011;2256;48.740;9.106;2024-03-06T10:34:15;3.33;;;1.57;;
4486;SDS011;2256;48.740;9.106;2024-03-06T10:36:42;4.23;;;1.60;;
4486;SDS011;2256;48.740;9.106;2024-03-06T10:39:10;1.50;;;1.40;;
4486;SDS011;2256;48.740;9.106;2024-03-06T10:41:41;3.08;;;2.33;;
4486;SDS011;2256;48.740;9.106;2024-03-06T10:44:11;2.03;;;1.80;;
4486;SDS011;2256;48.740;9.106;2024-03-06T10:46:43;2.93;;;1.87;;
4486;SDS011;2256;48.740;9.106;2024-03-06T10:49:12;8.60;;;3.07;;
4486;SDS011;2256;48.740;9.106;2024-03-06T10:51:40;5.60;;;2.60;;
4486;SDS011;2256;48.740;9.106;2024-03-06T10:54:10;3.33;;;1.90;;
4486;SDS011;2256;48.740;9.106;2024-03-06T10:56:41;4.00;;;2.70;;
4486;SDS011;2256;48.740;9.106;2024-03-06T10:59:09;11.40;;;2.80;;
4486;SDS011;2256;48.740;9.106;2024-03-06T11:01:38;3.17;;;2.87;;
4486;SDS011;2256;48.740;9.106;2024-03-06T11:04:09;6.70;;;2.40;;
4486;SDS011;2256;48.740;9.106;2024-03-06T11:06:37;4.40;;;2.30;;
4486;SDS011;2256;48.740;9.106;2024-03-06T11:09:05;3.97;;;2.10;;
4486;SDS011;2256;48.740;9.106;2024-03-06T11:11:32;5.10;;;2.00;;
4486;SDS011;2256;48.740;9.106;2024-03-06T11:14:14;3.90;;;2.40;;
4486;SDS011;2256;48.740;9.106;2024-03-06T11:16:55;2.90;;;1.77;;
4486;SDS011;2256;48.740;9.106;2024-03-06T11:19:28;4.43;;;2.70;;
4486;SDS011;2256;48.740;9.106;2024-03-06T11:21:55;8.02;;;3.65;;
4486;SDS011;2256;48.740;9.106;2024-03-06T11:24:22;6.90;;;3.60;;
4486;SDS011;2256;48.740;9.106;2024-03-06T11:26:52;5.38;;;2.15;;
4486;SDS011;2256;48.740;9.106;2024-03-06T11:29:26;7.80;;;2.77;;
4486;SDS011;2256;48.740;9.106;2024-03-06T11:31:59;6.22;;;2.95;;
4486;SDS011;2256;48.740;9.106;2024-03-06T11:34:32;3.85;;;2.15;;
4486;SDS011;2256;48.740;9.106;2024-03-06T11:36:59;12.27;;;2.95;;
4486;SDS011;2256;48.740;9.106;2024-03-06T11:39:35;3.20;;;2.33;;
4486;SDS011;2256;48.740;9.106;2024-03-06T11:42:04;3.42;;;2.58;;
4486;SDS011;2256;48.740;9.106;2024-03-06T11:44:34;7.30;;;2.65;;
4486;SDS011;2256;48.740;9.106;2024-03-06T11:47:02;5.20;;;2.17;;
4486;SDS011;2256;48.740;9.106;2024-03-06T11:49:30;4.47;;;3.00;;
4486;SDS011;2256;48.740;9.106;2024-03-06T11:51:59;4.65;;;2.40;;
4486;SDS011;2256;48.740;9.106;2024-03-06T11:54:28;3.55;;;2.35;;
4486;SDS011;2256;48.740;9.106;2024-03-06T11:56:56;5.40;;;3.38;;
4486;SDS011;2256;48.740;9.106;2024-03-06T11:59:24;6.80;;;4.75;;
4486;SDS011;2256;48.740;9.106;2024-03-06T12:01:53;10.40;;;3.42;;
4486;SDS011;2256;48.740;9.106;2024-03-06T12:04:21;3.15;;;2.45;;
4486;SDS011;2256;48.740;9.106;2024-03-06T12:06:49;10.18;;;4.97;;
4486;SDS011;2256;48.740;9.106;2024-03-06T12:09:16;8.80;;;3.42;;
4486;SDS011;2256;48.740;9.106;2024-03-06T12:11:43;6.18;;;2.53;;
4486;SDS011;2256;48.740;9.106;2024-03-06T12:14:13;8.35;;;2.50;;
4486;SDS011;2256;48.740;9.106;2024-03-06T12:16:43;2.90;;;2.28;;
4486;SDS011;2256;48.740;9.106;2024-03-06T12:19:11;10.45;;;4.43;;
4486;SDS011;2256;48.740;9.106;2024-03-06T12:21:38;11.93;;;3.20;;
4486;SDS011;2256;48.740;9.106;2024-03-06T12:24:06;6.93;;;3.42;;
4486;SDS011;2256;48.740;9.106;2024-03-06T12:26:34;12.68;;;4.20;;
4486;SDS011;2256;48.740;9.106;2024-03-06T12:29:05;7.05;;;3.72;;
4486;SDS011;2256;48.740;9.106;2024-03-06T12:31:34;11.05;;;3.17;;
4486;SDS011;2256;48.740;9.106;2024-03-06T12:34:01;5.13;;;4.20;;
4486;SDS011;2256;48.740;9.106;2024-03-06T12:36:30;6.43;;;3.80;;
4486;SDS011;2256;48.740;9.106;2024-03-06T12:38:58;6.35;;;3.55;;
4486;SDS011;2256;48.740;9.106;2024-03-06T12:41:26;10.35;;;4.30;;
4486;SDS011;2256;48.740;9.106;2024-03-06T12:43:53;12.93;;;4.30;;
4486;SDS011;2256;48.740;9.106;2024-03-06T12:46:21;5.75;;;3.40;;
4486;SDS011;2256;48.740;9.106;2024-03-06T12:48:48;5.75;;;3.40;;
4486;SDS011;2256;48.740;9.106;2024-03-06T12:51:15;14.25;;;5.88;;
4486;SDS011;2256;48.740;9.106;2024-03-06T12:53:43;6.57;;;3.60;;
4486;SDS011;2256;48.740;9.106;2024-03-06T12:56:10;4.90;;;3.50;;
4486;SDS011;2256;48.740;9.106;2024-03-06T12:58:37;8.95;;;3.58;;
4486;SDS011;2256;48.740;9.106;2024-03-06T13:01:04;3.00;;;2.65;;
4486;SDS011;2256;48.740;9.106;2024-03-06T13:03:31;6.78;;;3.80;;
4486;SDS011;2256;48.740;9.106;2024-03-06T13:05:59;10.68;;;3.17;;
4486;SDS011;2256;48.740;9.106;2024-03-06T13:08:26;4.72;;;2.58;;
4486;SDS011;2256;48.740;9.106;2024-03-06T13:10:54;6.85;;;3.60;;
4486;SDS011;2256;48.740;9.106;2024-03-06T13:13:21;6.20;;;3.25;;
4486;SDS011;2256;48.740;9.106;2024-03-06T13:15:48;6.35;;;4.25;;
4486;SDS011;2256;48.740;9.106;2024-03-06T13:18:15;8.48;;;3.85;;
4486;SDS011;2256;48.740;9.106;2024-03-06T13:20:42;7.57;;;3.30;;
4486;SDS011;2256;48.740;9.106;2024-03-06T13:23:10;2.10;;;1.98;;
4486;SDS011;2256;48.740;9.106;2024-03-06T13:25:36;7.47;;;2.45;;
4486;SDS011;2256;48.740;9.106;2024-03-06T13:28:05;4.65;;;3.05;;
4486;SDS011;2256;48.740;9.106;2024-03-06T13:30:32;5.75;;;3.50;;
4486;SDS011;2256;48.740;9.106;2024-03-06T13:32:59;5.57;;;2.38;;
4486;SDS011;2256;48.740;9.106;2024-03-06T13:35:25;3.22;;;2.33;;
4486;SDS011;2256;48.740;9.106;2024-03-06T13:37:53;7.75;;;3.20;;
4486;SDS011;2256;48.740;9.106;2024-03-06T13:40:20;7.30;;;3.30;;
4486;SDS011;2256;48.740;9.106;2024-03-06T13:42:47;5.68;;;2.88;;
4486;SDS011;2256;48.740;9.106;2024-03-06T13:45:15;5.18;;;2.58;;
4486;SDS011;2256;48.740;9.106;2024-03-06T13:47:42;10.65;;;3.63;;
4486;SDS011;2256;48.740;9.106;2024-03-06T13:50:10;5.50;;;2.83;;
4486;SDS011;2256;48.740;9.106;2024-03-06T13:52:38;9.37;;;3.70;;
4486;SDS011;2256;48.740;9.106;2024-03-06T13:55:05;5.25;;;3.28;;
4486;SDS011;2256;48.740;9.106;2024-03-06T13:57:33;6.95;;;3.25;;
4486;SDS011;2256;48.740;9.106;2024-03-06T14:00:02;7.55;;;2.95;;
4486;SDS011;2256;48.740;9.106;2024-03-06T14:02:31;3.22;;;2.55;;
4486;SDS011;2256;48.740;9.106;2024-03-06T14:04:58;1.95;;;1.52;;
4486;SDS011;2256;48.740;9.106;2024-03-06T14:07:25;6.05;;;3.53;;
4486;SDS011;2256;48.740;9.106;2024-03-06T14:09:52;5.18;;;3.00;;
4486;SDS011;2256;48.740;9.106;2024-03-06T14:12:21;5.78;;;3.30;;
4486;SDS011;2256;48.740;9.106;2024-03-06T14:14:48;6.95;;;2.00;;
4486;SDS011;2256;48.740;9.106;2024-03-06T14:17:15;5.70;;;3.00;;
4486;SDS011;2256;48.740;9.106;2024-03-06T14:19:43;4.75;;;2.90;;
4486;SDS011;2256;48.740;9.106;2024-03-06T14:22:10;6.05;;;3.22;;
4486;SDS011;2256;48.740;9.106;2024-03-06T14:24:37;2.93;;;2.63;;
4486;SDS011;2256;48.740;9.106;2024-03-06T14:27:05;5.15;;;2.05;;
4486;SDS011;2256;48.740;9.106;2024-03-06T14:29:31;5.60;;;3.45;;
4486;SDS011;2256;48.740;9.106;2024-03-06T14:31:58;8.05;;;2.88;;
4486;SDS011;2256;48.740;9.106;2024-03-06T14:34:25;5.63;;;3.85;;
4486;SDS011;2256;48.740;9.106;2024-03-06T14:36:53;5.47;;;3.08;;
4486;SDS011;2256;48.740;9.106;2024-03-06T14:39:20;5.20;;;3.05;;
4486;SDS011;2256;48.740;9.106;2024-03-06T14:41:49;5.13;;;2.80;;
4486;SDS011;2256;48.740;9.106;2024-03-06T14:44:16;7.22;;;2.90;;
4486;SDS011;2256;48.740;9.106;2024-03-06T14:46:42;5.35;;;3.38;;
4486;SDS011;2256;48.740;9.106;2024-03-06T14:49:09;4.55;;;3.47;;
4486;SDS011;2256;48.740;9.106;2024-03-06T14:51:36;4.00;;;1.98;;
4486;SDS011;2256;48.740;9.106;2024-03-06T14:54:05;3.00;;;2.38;;
4486;SDS011;2256;48.740;9.106;2024-03-06T14:56:31;6.25;;;3.25;;
4486;SDS011;2256;48.740;9.106;2024-03-06T14:58:58;4.93;;;3.40;;
4486;SDS011;2256;48.740;9.106;2024-03-06T15:01:25;3.05;;;1.92;;
4486;SDS011;2256;48.740;9.106;2024-03-06T15:03:52;4.83;;;3.50;;
4486;SDS011;2256;48.740;9.106;2024-03-06T15:06:19;7.37;;;3.73;;
4486;SDS011;2256;48.740;9.106;2024-03-06T15:08:47;4.43;;;2.33;;
4486;SDS011;2256;48.740;9.106;2024-03-06T15:11:15;5.23;;;2.73;;
4486;SDS011;2256;48.740;9.106;2024-03-06T15:13:42;4.80;;;2.63;;
4486;SDS011;2256;48.740;9.106;2024-03-06T15:16:10;5.30;;;3.53;;
4486;SDS011;2256;48.740;9.106;2024-03-06T15:18:38;6.55;;;3.33;;